createdAt,value
2019-03-12T00:01:54.085Z,18.80
2019-03-12T00:04:25.678Z,18.80
2019-03-12T00:06:58.079Z,18.80
2019-03-12T00:09:29.743Z,18.80
2019-03-12T00:12:01.255Z,18.80
2019-03-12T00:14:32.714Z,18.80
2019-03-12T00:17:04.059Z,18.80
2019-03-12T00:19:35.309Z,18.80
2019-03-12T00:22:06.506Z,18.80
2019-03-12T00:24:37.898Z,18.80
2019-03-12T00:27:09.661Z,18.80
2019-03-12T00:29:41.213Z,18.80
2019-03-12T00:32:12.562Z,18.80
2019-03-12T00:34:44.003Z,18.70
2019-03-12T00:37:15.319Z,18.80
2019-03-12T00:39:46.914Z,18.70
2019-03-12T00:42:18.675Z,18.70
2019-03-12T00:44:49.997Z,18.70
2019-03-12T00:47:21.258Z,18.70
2019-03-12T00:49:52.224Z,18.70
2019-03-12T00:52:23.335Z,18.70
2019-03-12T00:54:54.313Z,18.70
2019-03-12T00:57:25.226Z,18.70
2019-03-12T00:59:56.619Z,18.70
2019-03-12T01:02:28.434Z,18.70
2019-03-12T01:04:59.211Z,18.70
2019-03-12T01:07:30.419Z,18.70
2019-03-12T01:10:01.578Z,18.70
2019-03-12T01:12:32.722Z,18.70
2019-03-12T01:15:04.153Z,18.70
2019-03-12T01:17:35.110Z,18.70
2019-03-12T01:20:09.153Z,18.70
2019-03-12T01:22:40.341Z,18.70
2019-03-12T01:25:12.362Z,18.70
2019-03-12T01:27:43.263Z,18.70
2019-03-12T01:30:17.245Z,18.70
2019-03-12T01:32:48.030Z,18.70
2019-03-12T01:35:18.833Z,18.60
2019-03-12T01:37:49.666Z,18.60
2019-03-12T01:40:20.957Z,18.70
2019-03-12T01:42:52.626Z,18.60
2019-03-12T01:45:23.755Z,18.60
2019-03-12T01:47:54.878Z,18.60
2019-03-12T01:50:25.722Z,18.60
2019-03-12T01:52:56.834Z,18.60
2019-03-12T01:55:27.977Z,18.60
2019-03-12T01:57:59.139Z,18.60
2019-03-12T02:00:30.265Z,18.60
2019-03-12T02:03:02.043Z,18.60
2019-03-12T02:05:33.183Z,18.60
2019-03-12T02:08:04.331Z,18.60
2019-03-12T02:10:36.446Z,18.60
2019-03-12T02:13:07.146Z,18.60
2019-03-12T02:15:38.321Z,18.60
2019-03-12T02:18:09.535Z,18.60
2019-03-12T02:20:40.647Z,18.60
2019-03-12T02:23:11.748Z,18.60
2019-03-12T02:25:42.653Z,18.60
2019-03-12T02:28:13.776Z,18.60
2019-03-12T02:30:44.915Z,18.60
2019-03-12T02:33:15.782Z,18.60
2019-03-12T02:35:46.851Z,18.60
2019-03-12T02:38:17.289Z,18.60
2019-03-12T02:40:48.259Z,18.60
2019-03-12T02:43:18.715Z,18.60
2019-03-12T02:45:49.321Z,18.60
2019-03-12T02:48:19.630Z,18.60
2019-03-12T02:50:50.704Z,18.60
2019-03-12T02:53:20.996Z,18.60
2019-03-12T02:55:51.692Z,18.60
2019-03-12T02:58:21.851Z,18.60
2019-03-12T03:00:52.801Z,18.60
2019-03-12T03:03:23.183Z,18.60
2019-03-12T03:06:03.428Z,18.60
2019-03-12T03:08:34.375Z,18.60
2019-03-12T03:11:05.363Z,18.60
2019-03-12T03:13:35.681Z,18.60
2019-03-12T03:16:06.925Z,18.60
2019-03-12T03:18:37.589Z,18.60
2019-03-12T03:21:08.705Z,18.60
2019-03-12T03:23:39.627Z,18.60
2019-03-12T03:26:10.384Z,18.60
2019-03-12T03:28:40.768Z,18.60
2019-03-12T03:31:11.571Z,18.60
2019-03-12T03:33:42.598Z,18.60
2019-03-12T03:36:13.988Z,18.60
2019-03-12T03:38:44.948Z,18.60
2019-03-12T03:41:16.011Z,18.60
2019-03-12T03:43:47.398Z,18.60
2019-03-12T03:46:18.211Z,18.60
2019-03-12T03:48:49.433Z,18.60
2019-03-12T03:51:20.586Z,18.60
2019-03-12T03:53:51.426Z,18.60
2019-03-12T03:56:22.261Z,18.50
2019-03-12T03:58:53.408Z,18.50
2019-03-12T04:01:24.856Z,18.50
2019-03-12T04:03:55.995Z,18.50
2019-03-12T04:06:27.149Z,18.50
2019-03-12T04:08:58.279Z,18.50
2019-03-12T04:11:29.738Z,18.50
2019-03-12T04:14:00.576Z,18.50
2019-03-12T04:16:31.718Z,18.50
2019-03-12T04:19:02.870Z,18.50
2019-03-12T04:21:34.008Z,18.50
2019-03-12T04:24:04.840Z,18.50
2019-03-12T04:26:35.978Z,18.50
2019-03-12T04:29:07.326Z,18.50
2019-03-12T04:31:39.493Z,18.50
2019-03-12T04:34:18.274Z,18.40
2019-03-12T04:36:50.085Z,18.40
2019-03-12T04:39:20.797Z,18.40
2019-03-12T04:41:51.551Z,18.40
2019-03-12T04:44:22.874Z,18.40
2019-03-12T04:46:53.730Z,18.40
2019-03-12T04:49:24.879Z,18.40
2019-03-12T04:51:56.343Z,18.40
2019-03-12T04:54:27.165Z,18.40
2019-03-12T04:56:57.788Z,18.40
2019-03-12T04:59:28.299Z,18.40
2019-03-12T05:01:59.977Z,18.40
2019-03-12T05:04:30.587Z,18.40
2019-03-12T05:07:01.042Z,18.40
2019-03-12T05:09:31.645Z,18.40
2019-03-12T05:12:02.097Z,18.40
2019-03-12T05:14:33.638Z,18.40
2019-03-12T05:17:21.894Z,18.40
2019-03-12T05:19:52.708Z,18.40
2019-03-12T05:22:26.641Z,18.40
2019-03-12T05:24:57.251Z,18.40
2019-03-12T05:27:27.701Z,18.40
2019-03-12T05:29:58.308Z,18.40
2019-03-12T05:32:29.061Z,18.40
2019-03-12T05:34:59.675Z,18.40
2019-03-12T05:37:30.431Z,18.40
2019-03-12T05:40:01.046Z,18.40
2019-03-12T05:42:33.642Z,18.40
2019-03-12T05:45:04.798Z,18.40
2019-03-12T05:47:35.326Z,18.40
2019-03-12T05:50:07.454Z,18.40
2019-03-12T05:52:39.442Z,18.40
2019-03-12T05:55:11.536Z,18.40
2019-03-12T05:57:42.041Z,18.40
2019-03-12T06:00:13.954Z,18.40
2019-03-12T06:02:47.705Z,18.40
2019-03-12T06:05:18.321Z,18.40
2019-03-12T06:07:49.065Z,18.40
2019-03-12T06:10:19.678Z,18.40
2019-03-12T06:12:50.122Z,18.40
2019-03-12T06:15:20.776Z,18.40
2019-03-12T06:17:51.193Z,18.40
2019-03-12T06:20:21.793Z,18.40
2019-03-12T06:22:52.361Z,18.40
2019-03-12T06:25:22.867Z,18.40
2019-03-12T06:27:53.606Z,18.40
2019-03-12T06:30:25.838Z,18.50
2019-03-12T06:33:02.349Z,18.50
2019-03-12T06:35:40.413Z,18.50
2019-03-12T06:38:39.099Z,18.50
2019-03-12T06:41:17.326Z,18.50
2019-03-12T06:44:12.972Z,18.50
2019-03-12T06:46:58.200Z,18.50
2019-03-12T06:49:46.342Z,18.50
2019-03-12T06:52:26.901Z,18.50
2019-03-12T06:55:19.295Z,18.50
2019-03-12T06:58:35.044Z,18.60
2019-03-12T07:01:27.631Z,18.60
2019-03-12T07:04:10.092Z,18.60
2019-03-12T07:07:00.817Z,18.60
2019-03-12T07:09:49.038Z,18.60
2019-03-12T07:12:47.474Z,18.60
2019-03-12T07:15:37.435Z,18.60
2019-03-12T07:18:35.847Z,18.60
2019-03-12T07:21:21.861Z,18.60
2019-03-12T07:24:03.935Z,18.60
2019-03-12T07:26:49.771Z,18.60
2019-03-12T07:29:36.327Z,18.60
2019-03-12T07:32:15.389Z,18.60
2019-03-12T07:35:08.447Z,18.60
2019-03-12T07:37:57.691Z,18.70
2019-03-12T07:40:50.630Z,18.70
2019-03-12T07:43:43.313Z,18.70
2019-03-12T07:46:29.183Z,18.70
2019-03-12T07:49:10.449Z,18.70
2019-03-12T07:52:18.766Z,18.70
2019-03-12T07:55:02.825Z,18.70
2019-03-12T07:57:59.150Z,18.80
2019-03-12T08:00:43.190Z,18.80
2019-03-12T08:03:42.294Z,18.80
2019-03-12T08:06:22.760Z,18.80
2019-03-12T08:09:18.977Z,18.90
2019-03-12T08:12:00.268Z,18.80
2019-03-12T08:14:54.617Z,18.90
2019-03-12T08:17:48.325Z,18.80
2019-03-12T08:20:33.948Z,18.90
2019-03-12T08:23:12.931Z,18.90
2019-03-12T08:25:58.493Z,18.90
2019-03-12T08:28:54.638Z,18.90
2019-03-12T08:31:47.293Z,18.90
2019-03-12T08:34:36.873Z,18.90
2019-03-12T08:37:18.766Z,19.00
2019-03-12T08:40:14.795Z,19.00
2019-03-12T08:43:03.749Z,19.00
2019-03-12T08:45:52.154Z,19.00
2019-03-12T08:48:48.446Z,19.00
2019-03-12T08:51:35.554Z,19.00
2019-03-12T08:54:25.128Z,19.10
2019-03-12T08:57:22.699Z,19.10
2019-03-12T09:00:06.434Z,19.10
2019-03-12T09:02:55.704Z,19.10
2019-03-12T09:05:54.490Z,19.00
2019-03-12T09:08:43.458Z,19.00
2019-03-12T09:11:33.341Z,19.00
2019-03-12T09:14:23.687Z,19.00
2019-03-12T09:17:25.482Z,19.00
2019-03-12T09:20:20.481Z,19.00
2019-03-12T09:23:09.458Z,19.00
2019-03-12T09:26:01.760Z,19.00
2019-03-12T09:28:54.451Z,19.10
2019-03-12T09:31:42.515Z,19.10
2019-03-12T09:34:38.798Z,19.10
2019-03-12T09:37:38.225Z,19.10
2019-03-12T09:40:29.962Z,19.10
2019-03-12T09:43:16.316Z,19.10
2019-03-12T09:46:11.557Z,19.10
2019-03-12T09:49:07.597Z,19.20
2019-03-12T09:52:00.892Z,19.20
2019-03-12T09:54:56.879Z,19.20
2019-03-12T09:57:52.576Z,19.20
2019-03-12T10:00:51.375Z,19.20
2019-03-12T10:03:29.650Z,19.20
2019-03-12T10:06:18.265Z,19.20
2019-03-12T10:09:07.906Z,19.20
2019-03-12T10:12:03.851Z,19.30
2019-03-12T10:14:54.127Z,19.30
2019-03-12T10:17:49.774Z,19.30
2019-03-12T10:20:40.181Z,19.30
2019-03-12T10:23:18.168Z,19.30
2019-03-12T10:26:00.626Z,19.30
2019-03-12T10:28:51.790Z,19.40
2019-03-12T10:31:53.302Z,19.40
2019-03-12T10:34:35.584Z,19.50
2019-03-12T10:37:22.357Z,19.50
2019-03-12T10:40:17.770Z,19.50
2019-03-12T10:43:09.184Z,19.50
2019-03-12T10:46:02.447Z,19.60
2019-03-12T10:48:34.526Z,19.50
2019-03-12T10:51:06.586Z,19.60
2019-03-12T10:53:37.420Z,19.60
2019-03-12T10:56:08.552Z,19.60
2019-03-12T10:58:39.397Z,19.70
2019-03-12T11:01:11.202Z,19.70
2019-03-12T11:03:42.010Z,19.70
2019-03-12T11:06:13.766Z,19.70
2019-03-12T11:08:44.585Z,19.70
2019-03-12T11:11:15.749Z,19.70
2019-03-12T11:13:47.392Z,19.70
2019-03-12T11:16:18.639Z,19.70
2019-03-12T11:18:50.090Z,19.70
2019-03-12T11:21:21.005Z,19.70
2019-03-12T11:23:51.754Z,19.70
2019-03-12T11:26:22.902Z,19.70
2019-03-12T11:28:54.350Z,19.70
2019-03-12T11:31:25.499Z,19.70
2019-03-12T11:33:56.947Z,19.70
2019-03-12T11:36:28.003Z,19.70
2019-03-12T11:38:58.928Z,19.80
2019-03-12T11:41:30.036Z,19.80
2019-03-12T11:44:00.817Z,19.80
2019-03-12T11:46:41.978Z,19.90
2019-03-12T11:49:04.954Z,19.90
2019-03-12T11:51:36.190Z,19.90
2019-03-12T11:54:07.759Z,19.90
2019-03-12T11:56:38.787Z,19.90
2019-03-12T11:59:09.935Z,19.90
2019-03-12T12:01:41.557Z,19.90
2019-03-12T12:04:12.823Z,19.90
2019-03-12T12:06:43.836Z,19.90
2019-03-12T12:09:15.411Z,19.90
2019-03-12T12:11:46.559Z,20.00
2019-03-12T12:14:17.705Z,20.00
2019-03-12T12:16:49.789Z,20.00
2019-03-12T12:19:20.914Z,20.00
2019-03-12T12:21:52.140Z,20.00
2019-03-12T12:24:26.320Z,20.00
2019-03-12T12:26:56.188Z,20.00
2019-03-12T12:29:27.018Z,20.00
2019-03-12T12:31:58.474Z,20.10
2019-03-12T12:34:29.401Z,20.10
2019-03-12T12:37:00.454Z,20.10
2019-03-12T12:39:31.445Z,20.10
2019-03-12T12:42:02.000Z,20.10
2019-03-12T12:44:32.965Z,20.10
2019-03-12T12:47:03.285Z,20.20
2019-03-12T12:49:34.339Z,20.20
2019-03-12T12:52:04.643Z,20.20
2019-03-12T12:54:35.467Z,20.20
2019-03-12T12:57:05.710Z,20.20
2019-03-12T12:59:36.455Z,20.20
2019-03-12T13:02:07.066Z,20.20
2019-03-12T13:04:38.115Z,20.10
2019-03-12T13:07:08.818Z,20.20
2019-03-12T13:09:39.419Z,20.20
2019-03-12T13:12:09.794Z,20.20
2019-03-12T13:14:41.866Z,20.10
2019-03-12T13:17:12.783Z,20.20
2019-03-12T13:19:43.856Z,20.20
2019-03-12T13:22:14.878Z,20.10
2019-03-12T13:24:45.729Z,20.10
2019-03-12T13:27:16.172Z,20.10
2019-03-12T13:29:47.094Z,20.20
2019-03-12T13:32:17.528Z,20.10
2019-03-12T13:34:48.582Z,20.10
2019-03-12T13:37:19.294Z,20.10
2019-03-12T13:39:50.447Z,20.10
2019-03-12T13:42:21.293Z,20.10
2019-03-12T13:44:52.921Z,20.10
2019-03-12T13:47:28.633Z,20.10
2019-03-12T13:49:56.581Z,20.10
2019-03-12T13:52:28.735Z,20.10
2019-03-12T13:55:00.025Z,20.10
2019-03-12T13:57:31.211Z,20.00
2019-03-12T14:00:02.059Z,20.00
2019-03-12T14:02:35.039Z,20.10
2019-03-12T14:05:06.244Z,20.00
2019-03-12T14:07:37.277Z,20.00
2019-03-12T14:10:09.722Z,20.00
2019-03-12T14:12:40.842Z,20.00
2019-03-12T14:15:16.525Z,20.00
2019-03-12T14:17:47.425Z,20.00
2019-03-12T14:21:00.583Z,20.00
2019-03-12T14:23:37.779Z,20.00
2019-03-12T14:26:08.721Z,19.90
2019-03-12T14:28:39.925Z,19.90
2019-03-12T14:31:11.071Z,19.90
2019-03-12T14:33:42.166Z,19.90
2019-03-12T14:36:13.665Z,19.90
2019-03-12T14:38:44.642Z,19.90
2019-03-12T14:41:15.722Z,20.00
2019-03-12T14:43:47.095Z,19.90
2019-03-12T14:46:18.258Z,19.90
2019-03-12T14:48:51.103Z,19.90
2019-03-12T14:51:49.089Z,19.90
2019-03-12T14:54:20.546Z,19.90
2019-03-12T14:56:51.693Z,19.90
2019-03-12T14:59:22.834Z,19.90
2019-03-12T15:01:53.675Z,19.90
2019-03-12T15:04:24.814Z,20.00
2019-03-12T15:06:55.954Z,19.90
2019-03-12T15:09:27.498Z,19.90
2019-03-12T15:11:58.110Z,20.00
2019-03-12T15:14:29.082Z,20.00
2019-03-12T15:17:00.526Z,20.00
2019-03-12T15:19:31.676Z,20.00
2019-03-12T15:22:02.030Z,20.00
2019-03-12T15:24:34.963Z,20.00
2019-03-12T15:27:04.777Z,19.90
2019-03-12T15:29:35.637Z,19.90
2019-03-12T15:32:05.941Z,19.90
2019-03-12T15:34:36.997Z,20.00
2019-03-12T15:37:07.322Z,19.90
2019-03-12T15:39:38.296Z,19.90
2019-03-12T15:42:09.131Z,20.00
2019-03-12T15:44:39.966Z,20.00
2019-03-12T15:47:11.182Z,20.00
2019-03-12T15:49:42.933Z,19.90
2019-03-12T15:52:14.082Z,19.90
2019-03-12T15:54:45.229Z,19.90
2019-03-12T15:57:16.366Z,20.00
2019-03-12T15:59:47.548Z,20.00
2019-03-12T16:02:18.662Z,19.90
2019-03-12T16:04:51.342Z,19.90
2019-03-12T16:07:22.270Z,19.90
2019-03-12T16:09:53.320Z,19.90
2019-03-12T16:12:24.183Z,19.90
2019-03-12T16:14:55.297Z,19.90
2019-03-12T16:17:26.086Z,19.90
2019-03-12T16:19:57.050Z,19.90
2019-03-12T16:22:28.118Z,19.90
2019-03-12T16:24:58.950Z,19.90
2019-03-12T16:27:30.410Z,19.90
2019-03-12T16:30:01.858Z,19.90
2019-03-12T16:32:35.514Z,19.90
2019-03-12T16:35:07.840Z,19.90
2019-03-12T16:37:38.702Z,19.90
2019-03-12T16:40:10.317Z,19.80
2019-03-12T16:42:41.263Z,19.80
2019-03-12T16:45:12.483Z,19.80
2019-03-12T16:47:43.549Z,19.80
2019-03-12T16:50:14.998Z,19.80
2019-03-12T16:52:47.210Z,19.80
2019-03-12T16:55:19.449Z,19.80
2019-03-12T16:57:50.679Z,19.80
2019-03-12T17:00:21.122Z,19.80
2019-03-12T17:02:52.888Z,19.80
2019-03-12T17:05:26.317Z,19.80
2019-03-12T17:07:56.997Z,19.80
2019-03-12T17:10:28.142Z,19.80
2019-03-12T17:12:58.973Z,19.80
2019-03-12T17:15:30.601Z,19.80
2019-03-12T17:18:01.397Z,19.80
2019-03-12T17:20:33.014Z,19.80
2019-03-12T17:23:04.206Z,19.80
2019-03-12T17:25:35.311Z,19.80
2019-03-12T17:28:06.454Z,19.80
2019-03-12T17:30:38.225Z,19.80
2019-03-12T17:33:09.359Z,19.80
2019-03-12T17:35:40.435Z,19.70
2019-03-12T17:38:11.335Z,19.70
2019-03-12T17:40:42.560Z,19.70
2019-03-12T17:43:13.471Z,19.70
2019-03-12T17:45:44.770Z,19.70
2019-03-12T17:48:16.188Z,19.70
2019-03-12T17:50:47.057Z,19.70
2019-03-12T17:53:18.350Z,19.70
2019-03-12T17:55:49.325Z,19.70
2019-03-12T17:58:20.484Z,19.70
2019-03-12T18:00:51.951Z,19.70
2019-03-12T18:03:23.082Z,19.70
2019-03-12T18:05:54.158Z,19.70
2019-03-12T18:08:25.039Z,19.60
2019-03-12T18:10:55.928Z,19.60
2019-03-12T18:13:27.349Z,19.60
2019-03-12T18:16:04.305Z,19.60
2019-03-12T18:18:35.470Z,19.60
2019-03-12T18:21:07.227Z,19.60
2019-03-12T18:23:38.428Z,19.60
2019-03-12T18:26:12.684Z,19.50
2019-03-12T18:28:44.351Z,19.60
2019-03-12T18:31:15.496Z,19.50
2019-03-12T18:33:46.670Z,19.50
2019-03-12T18:36:17.774Z,19.50
2019-03-12T18:38:52.827Z,19.50
2019-03-12T18:41:22.241Z,19.50
2019-03-12T18:43:56.233Z,19.50
2019-03-12T18:46:27.263Z,19.50
2019-03-12T18:48:59.678Z,19.50
2019-03-12T18:51:33.608Z,19.50
2019-03-12T18:54:05.426Z,19.50
2019-03-12T18:56:36.462Z,19.50
2019-03-12T18:59:07.323Z,19.50
2019-03-12T19:01:39.379Z,19.50
2019-03-12T19:04:11.750Z,19.50
2019-03-12T19:06:42.881Z,19.50
2019-03-12T19:09:14.890Z,19.50
2019-03-12T19:11:48.662Z,19.40
2019-03-12T19:14:19.627Z,19.40
2019-03-12T19:16:51.142Z,19.40
2019-03-12T19:19:22.977Z,19.40
2019-03-12T19:21:54.622Z,19.40
2019-03-12T19:24:26.210Z,19.40
2019-03-12T19:26:57.960Z,19.40
2019-03-12T19:29:29.372Z,19.40
2019-03-12T19:32:22.897Z,19.40
2019-03-12T19:34:54.376Z,19.30
2019-03-12T19:37:26.138Z,19.30
2019-03-12T19:39:57.625Z,19.30
2019-03-12T19:42:30.075Z,19.30
2019-03-12T19:45:03.049Z,19.30
2019-03-12T19:47:34.814Z,19.30
2019-03-12T19:50:08.314Z,19.30
2019-03-12T19:52:40.004Z,19.30
2019-03-12T19:55:13.630Z,19.30
2019-03-12T19:57:45.240Z,19.30
2019-03-12T20:00:18.190Z,19.20
2019-03-12T20:02:50.074Z,19.20
2019-03-12T20:05:21.122Z,19.20
2019-03-12T20:07:52.407Z,19.20
2019-03-12T20:11:10.854Z,19.20
2019-03-12T20:14:11.858Z,19.20
2019-03-12T20:17:08.560Z,19.20
2019-03-12T20:20:08.086Z,19.20
2019-03-12T20:23:16.776Z,19.20
2019-03-12T20:26:33.909Z,19.10
2019-03-12T20:29:51.223Z,19.20
2019-03-12T20:33:05.555Z,19.20
2019-03-12T20:36:12.840Z,19.10
2019-03-12T20:39:21.022Z,19.10
2019-03-12T20:42:52.019Z,19.10
2019-03-12T20:46:00.479Z,19.10
2019-03-12T20:49:31.191Z,19.10
2019-03-12T20:52:32.850Z,19.10
2019-03-12T20:55:55.626Z,19.10
2019-03-12T20:59:02.604Z,19.10
2019-03-12T21:02:34.181Z,19.10
2019-03-12T21:06:00.694Z,19.10
2019-03-12T21:09:02.117Z,19.10
2019-03-12T21:12:12.090Z,19.10
2019-03-12T21:15:26.264Z,19.10
2019-03-12T21:18:43.468Z,19.10
2019-03-12T21:22:06.999Z,19.10
2019-03-12T21:25:17.802Z,19.00
2019-03-12T21:28:35.538Z,19.00
2019-03-12T21:31:06.757Z,19.00
2019-03-12T21:33:37.261Z,19.00
2019-03-12T21:36:08.458Z,19.00
2019-03-12T21:38:39.312Z,19.00
2019-03-12T21:41:11.060Z,19.00
2019-03-12T21:43:42.318Z,19.00
2019-03-12T21:46:14.706Z,19.00
2019-03-12T21:48:46.063Z,19.00
2019-03-12T21:51:17.365Z,19.00
2019-03-12T21:53:48.128Z,19.00
2019-03-12T21:56:19.553Z,18.90
2019-03-12T21:58:51.021Z,19.00
2019-03-12T22:01:22.162Z,19.00
2019-03-12T22:03:53.106Z,19.00
2019-03-12T22:06:24.274Z,19.00
2019-03-12T22:08:56.637Z,18.90
2019-03-12T22:11:27.732Z,18.90
2019-03-12T22:13:58.904Z,18.90
2019-03-12T22:16:30.042Z,18.90
2019-03-12T22:19:00.784Z,18.90
2019-03-12T22:21:41.255Z,18.90
2019-03-12T22:24:12.374Z,18.90
2019-03-12T22:26:42.912Z,18.90
2019-03-12T22:29:13.373Z,18.90
2019-03-12T22:31:44.189Z,18.90
2019-03-12T22:34:15.820Z,18.90
2019-03-12T22:36:47.178Z,18.80
2019-03-12T22:39:18.630Z,18.90
2019-03-12T22:41:49.479Z,18.80
2019-03-12T22:44:20.937Z,18.80
2019-03-12T22:46:52.329Z,18.80
2019-03-12T22:49:23.206Z,18.80
2019-03-12T22:51:54.970Z,18.80
2019-03-12T22:54:26.342Z,18.80
2019-03-12T22:56:58.487Z,18.80
2019-03-12T22:59:48.112Z,18.80
2019-03-12T23:02:36.709Z,18.80
2019-03-12T23:05:25.395Z,18.80
2019-03-12T23:08:14.376Z,18.80
2019-03-12T23:10:47.279Z,18.80
2019-03-12T23:13:20.036Z,18.80
2019-03-12T23:15:52.712Z,18.80
2019-03-12T23:18:23.276Z,18.80
2019-03-12T23:20:54.127Z,18.70
2019-03-12T23:23:25.610Z,18.70
2019-03-12T23:25:56.723Z,18.70
2019-03-12T23:28:27.374Z,18.70
2019-03-12T23:30:59.276Z,18.70
2019-03-12T23:33:29.878Z,18.70
2019-03-12T23:36:00.948Z,18.70
2019-03-12T23:38:31.249Z,18.70
2019-03-12T23:41:02.267Z,18.70
2019-03-12T23:43:32.602Z,18.70
2019-03-12T23:46:03.923Z,18.70
2019-03-12T23:48:34.283Z,18.70
2019-03-12T23:51:05.666Z,18.70
2019-03-12T23:53:36.190Z,18.70
2019-03-12T23:56:07.526Z,18.70
2019-03-12T23:58:37.939Z,18.70
